sensor_id;sensor_type;location;lat;lon;timestamp;temperature;humidity
70676;DHT22;59069;52.242;20.900;2024-01-16T00:01:17;-1.45;76.91
70676;DHT22;59069;52.242;20.900;2024-01-16T00:03:43;-1.47;76.81
70676;DHT22;59069;52.242;20.900;2024-01-16T00:06:09;-1.46;76.73
70676;DHT22;59069;52.242;20.900;2024-01-16T00:08:35;-1.49;76.56
70676;DHT22;59069;52.242;20.900;2024-01-16T00:11:03;-1.47;76.55
70676;DHT22;59069;52.242;20.900;2024-01-16T00:13:29;-1.50;76.57
70676;DHT22;59069;52.242;20.900;2024-01-16T00:15:55;-1.47;76.55
70676;DHT22;59069;52.242;20.900;2024-01-16T00:18:22;-1.49;76.56
70676;DHT22;59069;52.242;20.900;2024-01-16T00:20:47;-1.52;76.56
70676;DHT22;59069;52.242;20.900;2024-01-16T00:23:13;-1.50;76.58
70676;DHT22;59069;52.242;20.900;2024-01-16T00:25:38;-1.50;76.56
70676;DHT22;59069;52.242;20.900;2024-01-16T00:28:04;-1.53;76.64
70676;DHT22;59069;52.242;20.900;2024-01-16T00:30:30;-1.52;76.66
70676;DHT22;59069;52.242;20.900;2024-01-16T00:32:55;-1.53;76.58
70676;DHT22;59069;52.242;20.900;2024-01-16T00:35:21;-1.53;76.64
70676;DHT22;59069;52.242;20.900;2024-01-16T00:37:46;-1.53;76.66
70676;DHT22;59069;52.242;20.900;2024-01-16T00:40:12;-1.50;76.72
70676;DHT22;59069;52.242;20.900;2024-01-16T00:42:38;-1.52;76.69
70676;DHT22;59069;52.242;20.900;2024-01-16T00:45:04;-1.47;76.70
70676;DHT22;59069;52.242;20.900;2024-01-16T00:47:29;-1.47;76.66
70676;DHT22;59069;52.242;20.900;2024-01-16T00:49:55;-1.49;76.64
70676;DHT22;59069;52.242;20.900;2024-01-16T00:52:20;-1.46;76.61
70676;DHT22;59069;52.242;20.900;2024-01-16T00:54:46;-1.43;76.61
70676;DHT22;59069;52.242;20.900;2024-01-16T00:57:11;-1.46;76.67
70676;DHT22;59069;52.242;20.900;2024-01-16T00:59:37;-1.43;76.67
70676;DHT22;59069;52.242;20.900;2024-01-16T01:02:03;-1.42;76.56
70676;DHT22;59069;52.242;20.900;2024-01-16T01:04:29;-1.42;76.45
70676;DHT22;59069;52.242;20.900;2024-01-16T01:06:54;-1.40;76.30
70676;DHT22;59069;52.242;20.900;2024-01-16T01:09:20;-1.40;76.17
70676;DHT22;59069;52.242;20.900;2024-01-16T01:11:45;-1.43;76.07
70676;DHT22;59069;52.242;20.900;2024-01-16T01:14:11;-1.42;75.96
70676;DHT22;59069;52.242;20.900;2024-01-16T01:16:36;-1.42;76.01
70676;DHT22;59069;52.242;20.900;2024-01-16T01:19:02;-1.45;76.05
70676;DHT22;59069;52.242;20.900;2024-01-16T01:21:28;-1.43;75.75
70676;DHT22;59069;52.242;20.900;2024-01-16T01:23:54;-1.46;75.27
70676;DHT22;59069;52.242;20.900;2024-01-16T01:26:19;-1.50;75.11
70676;DHT22;59069;52.242;20.900;2024-01-16T01:28:45;-1.53;75.42
70676;DHT22;59069;52.242;20.900;2024-01-16T01:31:11;-1.55;75.76
70676;DHT22;59069;52.242;20.900;2024-01-16T01:33:36;-1.52;75.83
70676;DHT22;59069;52.242;20.900;2024-01-16T01:36:02;-1.59;75.56
70676;DHT22;59069;52.242;20.900;2024-01-16T01:38:28;-1.62;75.72
70676;DHT22;59069;52.242;20.900;2024-01-16T01:40:53;-1.60;75.74
70676;DHT22;59069;52.242;20.900;2024-01-16T01:43:20;-1.66;75.78
70676;DHT22;59069;52.242;20.900;2024-01-16T01:46:09;-1.67;75.59
70676;DHT22;59069;52.242;20.900;2024-01-16T01:48:37;-1.76;75.54
70676;DHT22;59069;52.242;20.900;2024-01-16T01:51:03;-1.81;75.59
70676;DHT22;59069;52.242;20.900;2024-01-16T01:53:30;-1.84;75.75
70676;DHT22;59069;52.242;20.900;2024-01-16T01:55:55;-1.88;75.68
70676;DHT22;59069;52.242;20.900;2024-01-16T01:58:21;-1.90;75.42
70676;DHT22;59069;52.242;20.900;2024-01-16T02:00:48;-1.95;75.23
70676;DHT22;59069;52.242;20.900;2024-01-16T02:03:13;-1.98;75.16
70676;DHT22;59069;52.242;20.900;2024-01-16T02:05:39;-2.02;74.89
70676;DHT22;59069;52.242;20.900;2024-01-16T02:08:05;-2.10;74.42
70676;DHT22;59069;52.242;20.900;2024-01-16T02:10:31;-2.11;74.04
70676;DHT22;59069;52.242;20.900;2024-01-16T02:12:57;-2.17;73.71
70676;DHT22;59069;52.242;20.900;2024-01-16T02:15:23;-2.19;73.23
70676;DHT22;59069;52.242;20.900;2024-01-16T02:17:49;-2.24;72.89
70676;DHT22;59069;52.242;20.900;2024-01-16T02:20:14;-2.28;72.78
70676;DHT22;59069;52.242;20.900;2024-01-16T02:22:42;-2.31;72.44
70676;DHT22;59069;52.242;20.900;2024-01-16T02:25:11;-2.37;72.33
70676;DHT22;59069;52.242;20.900;2024-01-16T02:27:36;-2.37;72.07
70676;DHT22;59069;52.242;20.900;2024-01-16T02:30:02;-2.42;72.04
70676;DHT22;59069;52.242;20.900;2024-01-16T02:32:28;-2.42;72.09
70676;DHT22;59069;52.242;20.900;2024-01-16T02:34:53;-2.44;72.04
70676;DHT22;59069;52.242;20.900;2024-01-16T02:37:19;-2.42;71.93
70676;DHT22;59069;52.242;20.900;2024-01-16T02:39:44;-2.42;71.68
70676;DHT22;59069;52.242;20.900;2024-01-16T02:42:10;-2.42;71.45
70676;DHT22;59069;52.242;20.900;2024-01-16T02:44:35;-2.44;71.37
70676;DHT22;59069;52.242;20.900;2024-01-16T02:47:01;-2.41;71.42
70676;DHT22;59069;52.242;20.900;2024-01-16T02:49:27;-2.44;71.54
70676;DHT22;59069;52.242;20.900;2024-01-16T02:51:52;-2.44;71.47
70676;DHT22;59069;52.242;20.900;2024-01-16T02:54:18;-2.41;71.45
70676;DHT22;59069;52.242;20.900;2024-01-16T02:56:43;-2.41;71.43
70676;DHT22;59069;52.242;20.900;2024-01-16T02:59:09;-2.38;71.46
70676;DHT22;59069;52.242;20.900;2024-01-16T03:01:34;-2.38;71.52
70676;DHT22;59069;52.242;20.900;2024-01-16T03:04:00;-2.35;71.30
70676;DHT22;59069;52.242;20.900;2024-01-16T03:06:25;-2.37;71.14
70676;DHT22;59069;52.242;20.900;2024-01-16T03:08:51;-2.37;71.13
70676;DHT22;59069;52.242;20.900;2024-01-16T03:11:17;-2.38;71.06
70676;DHT22;59069;52.242;20.900;2024-01-16T03:13:43;-2.39;71.13
70676;DHT22;59069;52.242;20.900;2024-01-16T03:16:12;-2.44;71.12
70676;DHT22;59069;52.242;20.900;2024-01-16T03:18:38;-2.46;70.99
70676;DHT22;59069;52.242;20.900;2024-01-16T03:21:05;-2.51;70.86
70676;DHT22;59069;52.242;20.900;2024-01-16T03:23:30;-2.58;70.89
70676;DHT22;59069;52.242;20.900;2024-01-16T03:25:56;-2.63;70.99
70676;DHT22;59069;52.242;20.900;2024-01-16T03:28:22;-2.70;71.13
70676;DHT22;59069;52.242;20.900;2024-01-16T03:30:48;-2.77;71.32
70676;DHT22;59069;52.242;20.900;2024-01-16T03:33:13;-2.83;71.55
70676;DHT22;59069;52.242;20.900;2024-01-16T03:35:39;-2.89;71.88
70676;DHT22;59069;52.242;20.900;2024-01-16T03:38:04;-2.94;72.11
70676;DHT22;59069;52.242;20.900;2024-01-16T03:40:30;-3.00;72.54
70676;DHT22;59069;52.242;20.900;2024-01-16T03:43:00;-3.03;72.65
70676;DHT22;59069;52.242;20.900;2024-01-16T03:45:25;-3.07;72.76
70676;DHT22;59069;52.242;20.900;2024-01-16T03:47:51;-3.13;72.89
70676;DHT22;59069;52.242;20.900;2024-01-16T03:50:16;-3.18;72.95
70676;DHT22;59069;52.242;20.900;2024-01-16T03:52:42;-3.21;72.84
70676;DHT22;59069;52.242;20.900;2024-01-16T03:55:07;-3.23;72.81
70676;DHT22;59069;52.242;20.900;2024-01-16T03:57:33;-3.30;72.93
70676;DHT22;59069;52.242;20.900;2024-01-16T03:59:58;-3.30;72.90
70676;DHT22;59069;52.242;20.900;2024-01-16T04:02:24;-3.37;72.86
70676;DHT22;59069;52.242;20.900;2024-01-16T04:04:49;-3.42;72.96
70676;DHT22;59069;52.242;20.900;2024-01-16T04:07:15;-3.45;72.94
70676;DHT22;59069;52.242;20.900;2024-01-16T04:09:42;-3.50;72.98
70676;DHT22;59069;52.242;20.900;2024-01-16T04:12:08;-3.52;72.96
70676;DHT22;59069;52.242;20.900;2024-01-16T04:14:34;-3.55;72.91
70676;DHT22;59069;52.242;20.900;2024-01-16T04:16:59;-3.59;73.08
70676;DHT22;59069;52.242;20.900;2024-01-16T04:19:25;-3.61;72.90
70676;DHT22;59069;52.242;20.900;2024-01-16T04:21:50;-3.66;72.94
70676;DHT22;59069;52.242;20.900;2024-01-16T04:24:16;-3.69;72.96
70676;DHT22;59069;52.242;20.900;2024-01-16T04:26:41;-3.72;73.00
70676;DHT22;59069;52.242;20.900;2024-01-16T04:29:07;-3.75;73.04
70676;DHT22;59069;52.242;20.900;2024-01-16T04:31:39;-3.76;73.12
70676;DHT22;59069;52.242;20.900;2024-01-16T04:34:06;-3.79;73.05
70676;DHT22;59069;52.242;20.900;2024-01-16T04:36:31;-3.85;73.08
70676;DHT22;59069;52.242;20.900;2024-01-16T04:38:57;-3.87;73.13
70676;DHT22;59069;52.242;20.900;2024-01-16T04:41:22;-3.89;73.11
70676;DHT22;59069;52.242;20.900;2024-01-16T04:43:47;-3.92;73.14
70676;DHT22;59069;52.242;20.900;2024-01-16T04:46:15;-3.96;73.19
70676;DHT22;59069;52.242;20.900;2024-01-16T04:48:41;-3.97;73.39
70676;DHT22;59069;52.242;20.900;2024-01-16T04:51:07;-3.99;73.32
70676;DHT22;59069;52.242;20.900;2024-01-16T04:53:33;-4.02;73.58
70676;DHT22;59069;52.242;20.900;2024-01-16T04:55:58;-4.07;73.61
70676;DHT22;59069;52.242;20.900;2024-01-16T04:58:24;-4.05;73.66
70676;DHT22;59069;52.242;20.900;2024-01-16T05:00:49;-4.06;73.68
70676;DHT22;59069;52.242;20.900;2024-01-16T05:03:15;-4.10;73.61
70676;DHT22;59069;52.242;20.900;2024-01-16T05:05:41;-4.13;73.65
70676;DHT22;59069;52.242;20.900;2024-01-16T05:08:06;-4.17;73.70
70676;DHT22;59069;52.242;20.900;2024-01-16T05:10:31;-4.20;73.82
70676;DHT22;59069;52.242;20.900;2024-01-16T05:12:57;-4.24;74.03
70676;DHT22;59069;52.242;20.900;2024-01-16T05:15:22;-4.27;74.19
70676;DHT22;59069;52.242;20.900;2024-01-16T05:17:48;-4.30;74.41
70676;DHT22;59069;52.242;20.900;2024-01-16T05:20:13;-4.28;74.48
70676;DHT22;59069;52.242;20.900;2024-01-16T05:22:39;-4.31;74.62
70676;DHT22;59069;52.242;20.900;2024-01-16T05:25:04;-4.30;74.66
70676;DHT22;59069;52.242;20.900;2024-01-16T05:27:33;-4.30;74.69
70676;DHT22;59069;52.242;20.900;2024-01-16T05:29:58;-4.33;74.91
70676;DHT22;59069;52.242;20.900;2024-01-16T05:32:24;-4.34;74.93
70676;DHT22;59069;52.242;20.900;2024-01-16T05:34:50;-4.31;74.90
70676;DHT22;59069;52.242;20.900;2024-01-16T05:37:15;-4.34;74.91
70676;DHT22;59069;52.242;20.900;2024-01-16T05:39:41;-4.37;74.83
70676;DHT22;59069;52.242;20.900;2024-01-16T05:42:06;-4.41;74.84
70676;DHT22;59069;52.242;20.900;2024-01-16T05:44:32;-4.43;75.01
70676;DHT22;59069;52.242;20.900;2024-01-16T05:46:57;-4.47;75.09
70676;DHT22;59069;52.242;20.900;2024-01-16T05:49:22;-4.50;75.03
70676;DHT22;59069;52.242;20.900;2024-01-16T05:51:48;-4.55;75.02
70676;DHT22;59069;52.242;20.900;2024-01-16T05:54:13;-4.58;75.12
70676;DHT22;59069;52.242;20.900;2024-01-16T05:56:39;-4.57;75.35
70676;DHT22;59069;52.242;20.900;2024-01-16T05:59:04;-4.57;75.55
70676;DHT22;59069;52.242;20.900;2024-01-16T06:01:30;-4.58;75.85
70676;DHT22;59069;52.242;20.900;2024-01-16T06:03:55;-4.55;75.95
70676;DHT22;59069;52.242;20.900;2024-01-16T06:06:21;-4.53;76.03
70676;DHT22;59069;52.242;20.900;2024-01-16T06:08:46;-4.47;76.06
70676;DHT22;59069;52.242;20.900;2024-01-16T06:11:11;-4.44;76.02
70676;DHT22;59069;52.242;20.900;2024-01-16T06:13:38;-4.41;76.08
70676;DHT22;59069;52.242;20.900;2024-01-16T06:16:06;-4.34;76.11
70676;DHT22;59069;52.242;20.900;2024-01-16T06:18:32;-4.27;76.17
70676;DHT22;59069;52.242;20.900;2024-01-16T06:20:57;-4.24;75.90
70676;DHT22;59069;52.242;20.900;2024-01-16T06:23:22;-4.18;75.60
70676;DHT22;59069;52.242;20.900;2024-01-16T06:25:48;-4.14;75.30
70676;DHT22;59069;52.242;20.900;2024-01-16T06:28:13;-4.11;75.05
70676;DHT22;59069;52.242;20.900;2024-01-16T06:30:39;-4.06;74.91
70676;DHT22;59069;52.242;20.900;2024-01-16T06:33:04;-4.05;74.67
70676;DHT22;59069;52.242;20.900;2024-01-16T06:35:30;-4.00;74.53
70676;DHT22;59069;52.242;20.900;2024-01-16T06:37:55;-4.02;74.23
70676;DHT22;59069;52.242;20.900;2024-01-16T06:40:21;-3.97;74.13
70676;DHT22;59069;52.242;20.900;2024-01-16T06:42:46;-3.96;73.94
70676;DHT22;59069;52.242;20.900;2024-01-16T06:45:12;-3.96;73.68
70676;DHT22;59069;52.242;20.900;2024-01-16T06:47:38;-3.96;73.60
70676;DHT22;59069;52.242;20.900;2024-01-16T06:50:05;-3.95;73.44
70676;DHT22;59069;52.242;20.900;2024-01-16T06:52:30;-3.96;73.29
70676;DHT22;59069;52.242;20.900;2024-01-16T06:54:56;-3.93;73.15
70676;DHT22;59069;52.242;20.900;2024-01-16T06:57:21;-3.95;73.23
70676;DHT22;59069;52.242;20.900;2024-01-16T06:59:47;-3.93;73.19
70676;DHT22;59069;52.242;20.900;2024-01-16T07:02:12;-3.90;73.06
70676;DHT22;59069;52.242;20.900;2024-01-16T07:04:38;-3.89;73.06
70676;DHT22;59069;52.242;20.900;2024-01-16T07:07:03;-3.90;72.96
70676;DHT22;59069;52.242;20.900;2024-01-16T07:09:29;-3.89;72.88
70676;DHT22;59069;52.242;20.900;2024-01-16T07:11:54;-3.85;72.87
70676;DHT22;59069;52.242;20.900;2024-01-16T07:14:20;-3.85;72.63
70676;DHT22;59069;52.242;20.900;2024-01-16T07:16:46;-3.86;72.43
70676;DHT22;59069;52.242;20.900;2024-01-16T07:19:11;-3.89;72.31
70676;DHT22;59069;52.242;20.900;2024-01-16T07:21:37;-3.92;72.19
70676;DHT22;59069;52.242;20.900;2024-01-16T07:24:03;-3.92;72.04
70676;DHT22;59069;52.242;20.900;2024-01-16T07:26:29;-3.92;72.15
70676;DHT22;59069;52.242;20.900;2024-01-16T07:28:54;-3.93;72.11
70676;DHT22;59069;52.242;20.900;2024-01-16T07:31:20;-3.96;71.86
70676;DHT22;59069;52.242;20.900;2024-01-16T07:33:45;-3.99;71.81
70676;DHT22;59069;52.242;20.900;2024-01-16T07:36:11;-4.03;71.68
70676;DHT22;59069;52.242;20.900;2024-01-16T07:38:37;-4.07;71.63
70676;DHT22;59069;52.242;20.900;2024-01-16T07:41:03;-4.11;71.52
70676;DHT22;59069;52.242;20.900;2024-01-16T07:43:28;-4.17;71.48
70676;DHT22;59069;52.242;20.900;2024-01-16T07:45:57;-4.21;71.53
70676;DHT22;59069;52.242;20.900;2024-01-16T07:48:23;-4.24;71.53
70676;DHT22;59069;52.242;20.900;2024-01-16T07:50:49;-4.30;71.60
70676;DHT22;59069;52.242;20.900;2024-01-16T07:53:15;-4.30;71.77
70676;DHT22;59069;52.242;20.900;2024-01-16T07:55:41;-4.30;71.82
70676;DHT22;59069;52.242;20.900;2024-01-16T07:58:07;-4.28;71.85
70676;DHT22;59069;52.242;20.900;2024-01-16T08:00:33;-4.27;71.81
70676;DHT22;59069;52.242;20.900;2024-01-16T08:02:58;-4.27;71.82
70676;DHT22;59069;52.242;20.900;2024-01-16T08:05:24;-4.27;71.76
70676;DHT22;59069;52.242;20.900;2024-01-16T08:07:53;-4.27;71.72
70676;DHT22;59069;52.242;20.900;2024-01-16T08:10:18;-4.24;71.64
70676;DHT22;59069;52.242;20.900;2024-01-16T08:12:44;-4.23;71.58
70676;DHT22;59069;52.242;20.900;2024-01-16T08:15:09;-4.17;71.54
70676;DHT22;59069;52.242;20.900;2024-01-16T08:17:35;-4.17;71.42
70676;DHT22;59069;52.242;20.900;2024-01-16T08:20:01;-4.14;71.28
70676;DHT22;59069;52.242;20.900;2024-01-16T08:22:26;-4.11;71.15
70676;DHT22;59069;52.242;20.900;2024-01-16T08:24:52;-4.10;71.01
70676;DHT22;59069;52.242;20.900;2024-01-16T08:27:18;-4.07;70.93
70676;DHT22;59069;52.242;20.900;2024-01-16T08:29:44;-4.03;70.83
70676;DHT22;59069;52.242;20.900;2024-01-16T08:32:09;-3.97;70.58
70676;DHT22;59069;52.242;20.900;2024-01-16T08:34:35;-3.96;70.54
70676;DHT22;59069;52.242;20.900;2024-01-16T08:37:01;-3.93;70.47
70676;DHT22;59069;52.242;20.900;2024-01-16T08:39:26;-3.89;70.35
70676;DHT22;59069;52.242;20.900;2024-01-16T08:41:53;-3.85;70.24
70676;DHT22;59069;52.242;20.900;2024-01-16T08:44:18;-3.78;70.12
70676;DHT22;59069;52.242;20.900;2024-01-16T08:46:44;-3.73;69.84
70676;DHT22;59069;52.242;20.900;2024-01-16T08:49:09;-3.68;69.57
70676;DHT22;59069;52.242;20.900;2024-01-16T08:51:36;-3.65;69.63
70676;DHT22;59069;52.242;20.900;2024-01-16T08:54:02;-3.61;69.31
70676;DHT22;59069;52.242;20.900;2024-01-16T08:56:28;-3.54;69.00
70676;DHT22;59069;52.242;20.900;2024-01-16T08:58:53;-3.50;68.66
70676;DHT22;59069;52.242;20.900;2024-01-16T09:01:19;-3.45;68.67
70676;DHT22;59069;52.242;20.900;2024-01-16T09:03:46;-3.25;68.93
70676;DHT22;59069;52.242;20.900;2024-01-16T09:06:12;-2.91;75.16
70676;DHT22;59069;52.242;20.900;2024-01-16T09:08:38;-2.59;74.12
70676;DHT22;59069;52.242;20.900;2024-01-16T09:11:03;-2.39;71.65
70676;DHT22;59069;52.242;20.900;2024-01-16T09:13:29;-2.31;69.41
70676;DHT22;59069;52.242;20.900;2024-01-16T09:15:54;-2.15;70.09
70676;DHT22;59069;52.242;20.900;2024-01-16T09:18:20;-1.93;72.79
70676;DHT22;59069;52.242;20.900;2024-01-16T09:20:45;-1.77;66.56
70676;DHT22;59069;52.242;20.900;2024-01-16T09:23:11;-1.62;65.50
70676;DHT22;59069;52.242;20.900;2024-01-16T09:25:38;-1.43;67.87
70676;DHT22;59069;52.242;20.900;2024-01-16T09:28:03;-0.99;77.60
70676;DHT22;59069;52.242;20.900;2024-01-16T09:30:28;-0.83;65.38
70676;DHT22;59069;52.242;20.900;2024-01-16T09:32:54;-0.61;68.91
70676;DHT22;59069;52.242;20.900;2024-01-16T09:35:19;-0.50;64.29
70676;DHT22;59069;52.242;20.900;2024-01-16T09:37:45;-0.49;59.71
70676;DHT22;59069;52.242;20.900;2024-01-16T09:40:11;-0.53;58.94
70676;DHT22;59069;52.242;20.900;2024-01-16T09:42:36;-0.53;58.38
70676;DHT22;59069;52.242;20.900;2024-01-16T09:45:02;-0.40;59.59
70676;DHT22;59069;52.242;20.900;2024-01-16T09:47:30;-0.29;60.15
70676;DHT22;59069;52.242;20.900;2024-01-16T09:49:57;0.05;66.16
70676;DHT22;59069;52.242;20.900;2024-01-16T09:52:24;0.63;70.35
70676;DHT22;59069;52.242;20.900;2024-01-16T09:54:50;1.01;59.77
70676;DHT22;59069;52.242;20.900;2024-01-16T09:57:18;1.26;55.45
70676;DHT22;59069;52.242;20.900;2024-01-16T09:59:46;1.55;56.85
70676;DHT22;59069;52.242;20.900;2024-01-16T10:02:13;1.78;54.87
70676;DHT22;59069;52.242;20.900;2024-01-16T10:04:41;2.02;54.41
70676;DHT22;59069;52.242;20.900;2024-01-16T10:07:08;2.29;53.95
70676;DHT22;59069;52.242;20.900;2024-01-16T10:09:35;2.58;52.06
70676;DHT22;59069;52.242;20.900;2024-01-16T10:12:01;2.78;51.03
70676;DHT22;59069;52.242;20.900;2024-01-16T10:14:28;2.96;49.45
70676;DHT22;59069;52.242;20.900;2024-01-16T10:16:58;3.16;49.31
70676;DHT22;59069;52.242;20.900;2024-01-16T10:19:27;3.43;51.47
70676;DHT22;59069;52.242;20.900;2024-01-16T10:22:03;3.99;56.05
70676;DHT22;59069;52.242;20.900;2024-01-16T10:24:29;4.63;54.44
70676;DHT22;59069;52.242;20.900;2024-01-16T10:26:59;5.28;46.83
70676;DHT22;59069;52.242;20.900;2024-01-16T10:29:26;5.54;39.39
70676;DHT22;59069;52.242;20.900;2024-01-16T10:31:51;5.37;38.37
70676;DHT22;59069;52.242;20.900;2024-01-16T10:34:20;4.97;34.30
70676;DHT22;59069;52.242;20.900;2024-01-16T10:36:51;4.66;39.44
70676;DHT22;59069;52.242;20.900;2024-01-16T10:39:18;3.97;32.43
70676;DHT22;59069;52.242;20.900;2024-01-16T10:41:59;3.29;36.78
70676;DHT22;59069;52.242;20.900;2024-01-16T10:44:25;3.22;51.57
70676;DHT22;59069;52.242;20.900;2024-01-16T10:47:01;2.94;37.44
70676;DHT22;59069;52.242;20.900;2024-01-16T10:49:34;2.51;40.30
70676;DHT22;59069;52.242;20.900;2024-01-16T10:51:59;2.21;42.26
70676;DHT22;59069;52.242;20.900;2024-01-16T10:54:26;2.20;42.58
70676;DHT22;59069;52.242;20.900;2024-01-16T10:56:52;2.70;53.48
70676;DHT22;59069;52.242;20.900;2024-01-16T11:02:44;1.54;39.96
70676;DHT22;59069;52.242;20.900;2024-01-16T11:05:12;0.87;42.10
70676;DHT22;59069;52.242;20.900;2024-01-16T11:07:39;0.24;44.45
70676;DHT22;59069;52.242;20.900;2024-01-16T11:10:06;-0.29;46.09
70676;DHT22;59069;52.242;20.900;2024-01-16T11:12:34;-0.71;48.13
70676;DHT22;59069;52.242;20.900;2024-01-16T11:15:00;-1.01;49.47
70676;DHT22;59069;52.242;20.900;2024-01-16T11:17:29;-1.19;51.63
70676;DHT22;59069;52.242;20.900;2024-01-16T11:19:57;-1.32;52.84
70676;DHT22;59069;52.242;20.900;2024-01-16T11:22:23;-1.42;54.00
70676;DHT22;59069;52.242;20.900;2024-01-16T11:25:13;-1.46;54.84
70676;DHT22;59069;52.242;20.900;2024-01-16T11:27:40;-1.56;55.43
70676;DHT22;59069;52.242;20.900;2024-01-16T11:30:07;-1.62;56.09
70676;DHT22;59069;52.242;20.900;2024-01-16T11:32:40;-1.74;56.70
70676;DHT22;59069;52.242;20.900;2024-01-16T11:35:08;-1.80;57.43
70676;DHT22;59069;52.242;20.900;2024-01-16T11:37:35;-1.87;57.98
70676;DHT22;59069;52.242;20.900;2024-01-16T11:42:51;-1.97;58.61
70676;DHT22;59069;52.242;20.900;2024-01-16T11:48:28;-2.04;59.75
70676;DHT22;59069;52.242;20.900;2024-01-16T11:50:53;-2.04;59.99
70676;DHT22;59069;52.242;20.900;2024-01-16T11:53:36;-2.04;60.34
70676;DHT22;59069;52.242;20.900;2024-01-16T12:01:35;-2.10;60.96
70676;DHT22;59069;52.242;20.900;2024-01-16T12:04:04;-2.11;61.09
70676;DHT22;59069;52.242;20.900;2024-01-16T12:06:30;-2.15;61.32
70676;DHT22;59069;52.242;20.900;2024-01-16T12:09:15;-2.17;61.36
70676;DHT22;59069;52.242;20.900;2024-01-16T12:11:41;-2.21;61.43
70676;DHT22;59069;52.242;20.900;2024-01-16T12:14:13;-2.22;61.53
70676;DHT22;59069;52.242;20.900;2024-01-16T12:16:38;-2.24;62.01
70676;DHT22;59069;52.242;20.900;2024-01-16T12:19:06;-2.21;62.31
70676;DHT22;59069;52.242;20.900;2024-01-16T12:21:35;-2.24;62.59
70676;DHT22;59069;52.242;20.900;2024-01-16T12:24:04;-2.22;62.75
70676;DHT22;59069;52.242;20.900;2024-01-16T12:26:30;-2.24;62.85
70676;DHT22;59069;52.242;20.900;2024-01-16T12:28:56;-2.27;62.55
70676;DHT22;59069;52.242;20.900;2024-01-16T12:31:21;-2.28;62.76
70676;DHT22;59069;52.242;20.900;2024-01-16T12:33:48;-2.32;62.84
70676;DHT22;59069;52.242;20.900;2024-01-16T12:36:15;-2.31;63.01
70676;DHT22;59069;52.242;20.900;2024-01-16T12:38:40;-2.32;63.11
70676;DHT22;59069;52.242;20.900;2024-01-16T12:41:08;-2.35;63.13
70676;DHT22;59069;52.242;20.900;2024-01-16T12:43:34;-2.39;63.03
70676;DHT22;59069;52.242;20.900;2024-01-16T12:46:02;-2.46;63.15
70676;DHT22;59069;52.242;20.900;2024-01-16T12:48:28;-2.46;63.32
70676;DHT22;59069;52.242;20.900;2024-01-16T12:51:01;-2.49;63.49
70676;DHT22;59069;52.242;20.900;2024-01-16T12:53:27;-2.49;63.69
70676;DHT22;59069;52.242;20.900;2024-01-16T12:56:01;-2.51;63.68
70676;DHT22;59069;52.242;20.900;2024-01-16T12:58:35;-2.49;63.86
70676;DHT22;59069;52.242;20.900;2024-01-16T13:01:25;-2.45;63.74
70676;DHT22;59069;52.242;20.900;2024-01-16T13:03:51;-2.48;63.33
70676;DHT22;59069;52.242;20.900;2024-01-16T13:06:18;-2.51;63.34
70676;DHT22;59069;52.242;20.900;2024-01-16T13:08:50;-2.52;63.68
70676;DHT22;59069;52.242;20.900;2024-01-16T13:11:16;-2.52;63.91
70676;DHT22;59069;52.242;20.900;2024-01-16T13:13:48;-2.44;64.15
70676;DHT22;59069;52.242;20.900;2024-01-16T13:16:15;-2.45;63.83
70676;DHT22;59069;52.242;20.900;2024-01-16T13:18:41;-2.42;63.68
70676;DHT22;59069;52.242;20.900;2024-01-16T13:21:06;-2.41;63.71
70676;DHT22;59069;52.242;20.900;2024-01-16T13:23:32;-2.39;63.66
70676;DHT22;59069;52.242;20.900;2024-01-16T13:25:57;-2.42;63.41
70676;DHT22;59069;52.242;20.900;2024-01-16T13:28:28;-2.46;63.53
70676;DHT22;59069;52.242;20.900;2024-01-16T13:30:54;-2.42;63.83
70676;DHT22;59069;52.242;20.900;2024-01-16T13:33:23;-2.41;63.89
70676;DHT22;59069;52.242;20.900;2024-01-16T13:35:49;-2.35;63.80
70676;DHT22;59069;52.242;20.900;2024-01-16T13:38:15;-2.32;63.72
70676;DHT22;59069;52.242;20.900;2024-01-16T13:40:41;-2.24;63.96
70676;DHT22;59069;52.242;20.900;2024-01-16T13:43:07;-2.14;64.01
70676;DHT22;59069;52.242;20.900;2024-01-16T13:45:33;-2.00;63.48
70676;DHT22;59069;52.242;20.900;2024-01-16T13:48:00;-1.97;62.89
70676;DHT22;59069;52.242;20.900;2024-01-16T13:50:26;-1.97;62.51
70676;DHT22;59069;52.242;20.900;2024-01-16T13:52:52;-1.98;62.45
70676;DHT22;59069;52.242;20.900;2024-01-16T13:55:19;-2.04;62.18
70676;DHT22;59069;52.242;20.900;2024-01-16T13:57:44;-2.11;62.18
70676;DHT22;59069;52.242;20.900;2024-01-16T14:00:12;-2.21;61.99
70676;DHT22;59069;52.242;20.900;2024-01-16T14:02:42;-2.29;61.92
70676;DHT22;59069;52.242;20.900;2024-01-16T14:05:12;-2.39;62.20
70676;DHT22;59069;52.242;20.900;2024-01-16T14:07:41;-2.49;62.29
70676;DHT22;59069;52.242;20.900;2024-01-16T14:10:09;-2.55;62.55
70676;DHT22;59069;52.242;20.900;2024-01-16T14:12:39;-2.66;62.79
70676;DHT22;59069;52.242;20.900;2024-01-16T14:15:09;-2.70;63.04
70676;DHT22;59069;52.242;20.900;2024-01-16T14:17:42;-2.82;63.29
70676;DHT22;59069;52.242;20.900;2024-01-16T14:20:10;-2.89;63.57
70676;DHT22;59069;52.242;20.900;2024-01-16T14:22:36;-2.97;63.93
70676;DHT22;59069;52.242;20.900;2024-01-16T14:25:03;-3.03;64.31
70676;DHT22;59069;52.242;20.900;2024-01-16T14:27:39;-3.10;64.77
70676;DHT22;59069;52.242;20.900;2024-01-16T14:30:07;-3.10;65.14
70676;DHT22;59069;52.242;20.900;2024-01-16T14:32:33;-3.11;65.42
70676;DHT22;59069;52.242;20.900;2024-01-16T14:34:59;-3.08;65.56
70676;DHT22;59069;52.242;20.900;2024-01-16T14:37:24;-3.08;65.55
70676;DHT22;59069;52.242;20.900;2024-01-16T14:39:51;-3.10;65.57
70676;DHT22;59069;52.242;20.900;2024-01-16T14:42:16;-3.11;65.60
70676;DHT22;59069;52.242;20.900;2024-01-16T14:44:42;-3.15;65.44
70676;DHT22;59069;52.242;20.900;2024-01-16T14:47:07;-3.20;65.23
70676;DHT22;59069;52.242;20.900;2024-01-16T14:49:33;-3.27;65.18
70676;DHT22;59069;52.242;20.900;2024-01-16T14:52:00;-3.40;65.33
70676;DHT22;59069;52.242;20.900;2024-01-16T14:54:26;-3.44;65.37
70676;DHT22;59069;52.242;20.900;2024-01-16T14:56:52;-3.52;65.50
70676;DHT22;59069;52.242;20.900;2024-01-16T14:59:17;-3.62;65.69
70676;DHT22;59069;52.242;20.900;2024-01-16T15:01:44;-3.71;65.84
70676;DHT22;59069;52.242;20.900;2024-01-16T15:04:09;-3.81;66.10
70676;DHT22;59069;52.242;20.900;2024-01-16T15:06:35;-3.85;66.37
70676;DHT22;59069;52.242;20.900;2024-01-16T15:09:01;-3.89;66.69
70676;DHT22;59069;52.242;20.900;2024-01-16T15:11:27;-3.96;67.03
70676;DHT22;59069;52.242;20.900;2024-01-16T15:13:52;-3.97;67.11
70676;DHT22;59069;52.242;20.900;2024-01-16T15:16:18;-4.03;67.07
70676;DHT22;59069;52.242;20.900;2024-01-16T15:18:43;-4.07;67.07
70676;DHT22;59069;52.242;20.900;2024-01-16T15:21:09;-4.07;67.16
70676;DHT22;59069;52.242;20.900;2024-01-16T15:23:37;-4.09;67.28
70676;DHT22;59069;52.242;20.900;2024-01-16T15:26:03;-4.07;67.43
70676;DHT22;59069;52.242;20.900;2024-01-16T15:28:31;-4.11;67.76